Terminal Aerodrome Forecast
Issued by NWS

Home | Current Version | Previous Version | Graphics & Text | Print | Product List | Glossary On
Versions: 1 2 3 4 5 6 7 8 9 10 11 12
000
FTUS43 KMPX 282300
TAFAXN
TAF
KAXN 282338Z 2900/2924 33010KT P6SM SCT050
     FM290130 32004KT P6SM SKC
     FM291500 33008KT P6SM SCT050=

USA.gov is the U.S. government's official web portal to all federal, state and local government web resources and services.